Springlake, TX (79082)

4:44 AM CDT on October 22, 2014 (GMT -0500)
WT_Meso Olton 6S | Change Station
CLOSE
Current Station
Personal Weather Station
Location: Olton, TX
Elevation: 3565 ft
Nearby Weather Stations

Elev 3565 ft 34.09 °N, 102.12 °W | Updated 49 minutes ago

Overcast
Overcast
59 °F
Feels Like 59 °F
N
6
Wind Variable Wind from South
Gusts 7.0 mph

Today
High -- | Low -- °F
--% Chance of Precip.
Yesterday
High -- | Low -- °F
Precip. -- in
8:00 AM 7:06 PM
Waning Crescent, 2% visible
Pressure 30.07 in
Visibility 10.0 miles
Clouds Overcast 9000 ft
Dew Point 52 °F
Humidity 78%
Rainfall -999.00 in
Snow Depth Not available.
UV 0 out of 12
Pollen 3.90 out of 12
Air Quality Not available.
Flu Activity Sporadic
METAR KPVW 220935Z AUTO 18004KT 10SM OVC090 14/11 A3007 RMK AO2 T01410111

More Conditions Fewer Conditions

Pressure 30.07 in
Visibility 10.0 miles
Clouds Overcast 9000 ft
Dew Point 52 °F
Humidity 78%
Rainfall -999.00 in
Snow Depth Not available.
UV 0 out of 12
Pollen 3.90 out of 12
Air Quality Not available.
Flu Activity Sporadic
METAR KPVW 220935Z AUTO 18004KT 10SM OVC090 14/11 A3007 RMK AO2 T01410111

More Conditions Fewer Conditions

Nowcast | as of 4:11 am CDT on October 22, 2014

Through 6 am... rain showers will continue to spread across the South Plains and southwestern Texas Panhandle. Accumulations with this activity will be limited to perhaps a few hundredths of an inch of rain. These showers are moving northeast near 30 mph.

×

10-Day Weather Forecast

Almanac

Astronomy

Oct. 22, 2014 Rise Set
Actual Time 8:00 AM CDT 7:06 PM CDT
Civil Twilight 7:34 AM CDT 7:32 PM CDT
Nautical Twilight 7:05 AM CDT 8:01 PM CDT
Astronomical Twilight 6:36 AM CDT 8:30 PM CDT
Moon 6:47 AM CDT 6:32 PM CDT
Length of Visible Light 11h 57m
Length of Day
11h 06m
Tomorrow will be 1m 59s shorter.
Waning Crescent, 2% of the Moon is Illuminated
Today
Waning Crescent
Oct 23
New
Oct 30
First Quarter
Nov 6
Full
Nov 14
Last Quarter

Today's Extremes

State Highs State Lows

Community

WunderPhotos

Upload Photos

1,763,900 photos uploaded!

Nearby

Snow Depth

Station Depth Elevation
No new snow has been reported.

Earthquake Activity

City Distance Mag. Time & Date
No recent earthquake activity has been reported nearby.
Minimum magnitude displayed is 2.5.

Coastal Water Temperatures

Place Temperature
No Stations Reporting

Nearby Weather Stations